createdAt,value
2022-12-17T00:00:03.649Z,23.32
2022-12-17T00:00:13.618Z,23.33
2022-12-17T00:00:27.713Z,23.33
2022-12-17T00:00:33.802Z,23.28
2022-12-17T00:00:43.975Z,23.31
2022-12-17T00:00:53.951Z,23.32
2022-12-17T00:01:04.063Z,23.31
2022-12-17T00:01:13.995Z,23.31
2022-12-17T00:01:24.255Z,23.32
2022-12-17T00:01:34.261Z,23.33
2022-12-17T00:01:44.316Z,23.34
2022-12-17T00:01:54.333Z,23.33
2022-12-17T00:02:04.336Z,23.34
2022-12-17T00:02:14.348Z,23.34
2022-12-17T00:02:24.516Z,23.34
2022-12-17T00:02:34.489Z,23.34
2022-12-17T00:02:44.543Z,23.34
2022-12-17T00:02:54.506Z,23.34
2022-12-17T00:03:04.734Z,23.35
2022-12-17T00:03:14.639Z,23.34
2022-12-17T00:03:24.854Z,23.34
2022-12-17T00:03:35.137Z,23.35
2022-12-17T00:03:44.932Z,23.34
2022-12-17T00:03:56.962Z,23.34
2022-12-17T00:04:05.046Z,23.33
2022-12-17T00:04:15.098Z,23.34
2022-12-17T00:04:25.280Z,23.33
2022-12-17T00:04:35.256Z,23.34
2022-12-17T00:04:45.392Z,23.35
2022-12-17T00:04:55.651Z,23.34
2022-12-17T00:05:05.669Z,23.33
2022-12-17T00:05:15.687Z,23.34
2022-12-17T00:05:26.081Z,23.34
2022-12-17T00:05:36.086Z,23.34
2022-12-17T00:05:46.089Z,23.33
2022-12-17T00:05:56.086Z,23.34
2022-12-17T00:06:06.172Z,23.33
2022-12-17T00:06:16.187Z,23.34
2022-12-17T00:06:26.173Z,23.34
2022-12-17T00:06:36.312Z,23.35
2022-12-17T00:06:46.432Z,23.35
2022-12-17T00:06:56.597Z,23.35
2022-12-17T00:07:06.729Z,23.35
2022-12-17T00:07:16.740Z,23.35
2022-12-17T00:07:26.750Z,23.35
2022-12-17T00:07:36.761Z,23.36
2022-12-17T00:07:46.892Z,23.36
2022-12-17T00:07:56.903Z,23.35
2022-12-17T00:08:06.907Z,23.36
2022-12-17T00:08:16.952Z,23.36
2022-12-17T00:08:26.935Z,23.36
2022-12-17T00:08:36.941Z,23.36
2022-12-17T00:08:47.186Z,23.35
2022-12-17T00:08:57.190Z,23.36
2022-12-17T00:09:07.193Z,23.35
2022-12-17T00:09:17.190Z,23.35
2022-12-17T00:09:27.198Z,23.34
2022-12-17T00:09:37.203Z,23.35
2022-12-17T00:09:50.414Z,23.35
2022-12-17T00:09:57.401Z,23.31
2022-12-17T00:10:07.409Z,23.33
2022-12-17T00:10:17.420Z,23.33
2022-12-17T00:10:27.568Z,23.33
2022-12-17T00:10:37.597Z,23.34
2022-12-17T00:10:47.601Z,23.34
2022-12-17T00:10:57.603Z,23.34
2022-12-17T00:11:07.731Z,23.34
2022-12-17T00:11:17.752Z,23.35
2022-12-17T00:11:27.750Z,23.35
2022-12-17T00:11:37.772Z,23.36
2022-12-17T00:11:47.777Z,23.35
2022-12-17T00:11:57.791Z,23.36
2022-12-17T00:12:08.047Z,23.36
2022-12-17T00:12:18.052Z,23.36
2022-12-17T00:12:28.050Z,23.35
2022-12-17T00:12:38.079Z,23.36
2022-12-17T00:12:48.065Z,23.35
2022-12-17T00:12:58.087Z,23.36
2022-12-17T00:13:08.102Z,23.36
2022-12-17T00:13:18.108Z,23.36
2022-12-17T00:13:28.228Z,23.37
2022-12-17T00:13:38.514Z,23.37
2022-12-17T00:13:48.478Z,23.36
2022-12-17T00:13:58.478Z,23.36
2022-12-17T00:14:08.595Z,23.36
2022-12-17T00:14:18.857Z,23.36
2022-12-17T00:14:28.973Z,23.37
2022-12-17T00:14:38.986Z,23.37
2022-12-17T00:14:49.241Z,23.37
2022-12-17T00:14:59.239Z,23.37
2022-12-17T00:15:09.274Z,23.38
2022-12-17T00:15:19.636Z,23.37
2022-12-17T00:15:29.641Z,23.38
2022-12-17T00:15:39.780Z,23.38
2022-12-17T00:15:50.083Z,23.37
2022-12-17T00:16:00.202Z,23.37
2022-12-17T00:16:10.258Z,23.37
2022-12-17T00:16:20.599Z,23.37
2022-12-17T00:16:30.669Z,23.37
2022-12-17T00:16:40.774Z,23.37
2022-12-17T00:16:50.912Z,23.36
2022-12-17T00:17:01.019Z,23.36
2022-12-17T00:17:11.028Z,23.36
2022-12-17T00:17:21.294Z,23.37
2022-12-17T00:17:31.313Z,23.37
2022-12-17T00:17:41.315Z,23.37
2022-12-17T00:17:51.337Z,23.37
2022-12-17T00:18:01.536Z,23.36
2022-12-17T00:18:11.548Z,23.37
2022-12-17T00:18:21.560Z,23.37
2022-12-17T00:18:31.574Z,23.37
2022-12-17T00:18:41.581Z,23.38
2022-12-17T00:18:51.594Z,23.37
2022-12-17T00:19:01.621Z,23.37
2022-12-17T00:19:11.625Z,23.37
2022-12-17T00:19:21.757Z,23.37
2022-12-17T00:19:31.766Z,23.37
2022-12-17T00:19:42.036Z,23.38
2022-12-17T00:19:52.045Z,23.38
2022-12-17T00:20:02.168Z,23.38
2022-12-17T00:20:12.432Z,23.37
2022-12-17T00:20:22.432Z,23.38
2022-12-17T00:20:32.453Z,23.37
2022-12-17T00:20:42.452Z,23.37
2022-12-17T00:20:52.457Z,23.38
2022-12-17T00:21:02.522Z,23.36
2022-12-17T00:21:12.531Z,23.37
2022-12-17T00:21:22.547Z,23.37
2022-12-17T00:21:32.551Z,23.37
2022-12-17T00:21:42.561Z,23.38
2022-12-17T00:21:52.574Z,23.37
2022-12-17T00:22:02.893Z,23.33
2022-12-17T00:22:12.913Z,23.34
2022-12-17T00:22:22.909Z,23.35
2022-12-17T00:22:32.929Z,23.36
2022-12-17T00:22:42.930Z,23.36
2022-12-17T00:22:52.926Z,23.36
2022-12-17T00:23:03.002Z,23.36
2022-12-17T00:23:13.030Z,23.36
2022-12-17T00:23:23.033Z,23.36
2022-12-17T00:23:33.578Z,23.37
2022-12-17T00:23:43.042Z,23.36
2022-12-17T00:23:53.048Z,23.36
2022-12-17T00:24:03.048Z,23.33
2022-12-17T00:24:13.048Z,23.34
2022-12-17T00:24:23.057Z,23.35
2022-12-17T00:24:33.064Z,23.36
2022-12-17T00:24:43.071Z,23.35
2022-12-17T00:24:53.082Z,23.36
2022-12-17T00:25:03.097Z,23.33
2022-12-17T00:25:13.101Z,23.34
2022-12-17T00:25:23.221Z,23.34
2022-12-17T00:25:33.354Z,23.35
2022-12-17T00:25:44.716Z,23.35
2022-12-17T00:25:53.597Z,23.35
2022-12-17T00:26:03.685Z,23.34
2022-12-17T00:26:13.685Z,23.34
2022-12-17T00:26:23.807Z,23.35
2022-12-17T00:26:33.805Z,23.35
2022-12-17T00:26:44.089Z,23.35
2022-12-17T00:26:54.092Z,23.35
2022-12-17T00:27:04.111Z,23.35
2022-12-17T00:27:14.126Z,23.35
2022-12-17T00:27:24.133Z,23.35
2022-12-17T00:27:34.140Z,23.35
2022-12-17T00:27:44.159Z,23.34
2022-12-17T00:27:54.144Z,23.35
2022-12-17T00:28:04.279Z,23.35
2022-12-17T00:28:14.290Z,23.35
2022-12-17T00:28:24.550Z,23.35
2022-12-17T00:28:34.576Z,23.35
2022-12-17T00:28:44.577Z,23.36
2022-12-17T00:28:54.594Z,23.35
2022-12-17T00:29:04.698Z,23.34
2022-12-17T00:29:14.714Z,23.34
2022-12-17T00:29:24.728Z,23.34
2022-12-17T00:29:34.716Z,23.34
2022-12-17T00:29:44.721Z,23.34
2022-12-17T00:29:54.724Z,23.35
2022-12-17T00:30:04.734Z,23.35
2022-12-17T00:30:14.741Z,23.35
2022-12-17T00:30:24.757Z,23.35
2022-12-17T00:30:34.757Z,23.35
2022-12-17T00:30:44.874Z,23.35
2022-12-17T00:30:55.141Z,23.35
2022-12-17T00:31:05.214Z,23.35
2022-12-17T00:31:15.261Z,23.35
2022-12-17T00:31:25.336Z,23.35
2022-12-17T00:31:35.378Z,23.36
2022-12-17T00:31:45.430Z,23.35
2022-12-17T00:31:55.489Z,23.36
2022-12-17T00:32:05.451Z,23.35
2022-12-17T00:32:15.453Z,23.35
2022-12-17T00:32:25.574Z,23.35
2022-12-17T00:32:35.577Z,23.36
2022-12-17T00:32:45.611Z,23.36
2022-12-17T00:32:55.623Z,23.37
2022-12-17T00:33:05.637Z,23.37
2022-12-17T00:33:15.893Z,23.36
2022-12-17T00:33:26.009Z,23.37
2022-12-17T00:33:36.477Z,23.37
2022-12-17T00:33:46.369Z,23.37
2022-12-17T00:33:56.400Z,23.37
2022-12-17T00:34:06.377Z,23.36
2022-12-17T00:34:16.403Z,23.36
2022-12-17T00:34:26.424Z,23.36
2022-12-17T00:34:36.435Z,23.37
2022-12-17T00:34:46.430Z,23.37
2022-12-17T00:34:56.444Z,23.37
2022-12-17T00:35:06.541Z,23.38
2022-12-17T00:35:16.542Z,23.37
2022-12-17T00:35:26.545Z,23.37
2022-12-17T00:35:36.552Z,23.36
2022-12-17T00:35:46.557Z,23.37
2022-12-17T00:35:56.559Z,23.37
2022-12-17T00:36:06.566Z,23.37
2022-12-17T00:36:16.566Z,23.36
2022-12-17T00:36:26.593Z,23.37
2022-12-17T00:36:36.591Z,23.36
2022-12-17T00:36:46.720Z,23.36
2022-12-17T00:36:56.721Z,23.37
2022-12-17T00:37:06.720Z,23.37
2022-12-17T00:37:16.744Z,23.37
2022-12-17T00:37:26.741Z,23.38
2022-12-17T00:37:36.740Z,23.37
2022-12-17T00:37:47.006Z,23.37
2022-12-17T00:37:57.011Z,23.38
2022-12-17T00:38:07.132Z,23.38
2022-12-17T00:38:17.398Z,23.38
2022-12-17T00:38:27.401Z,23.38
2022-12-17T00:38:37.402Z,23.38
2022-12-17T00:38:47.407Z,23.37
2022-12-17T00:38:57.414Z,23.37
2022-12-17T00:39:07.533Z,23.38
2022-12-17T00:39:17.533Z,23.37
2022-12-17T00:39:27.543Z,23.38
2022-12-17T00:39:37.553Z,23.37
2022-12-17T00:39:47.549Z,23.37
2022-12-17T00:39:59.522Z,23.37
2022-12-17T00:40:07.839Z,23.36
2022-12-17T00:40:17.843Z,23.36
2022-12-17T00:40:27.862Z,23.37
2022-12-17T00:40:37.888Z,23.36
2022-12-17T00:40:47.899Z,23.37
2022-12-17T00:40:57.933Z,23.37
2022-12-17T00:41:07.948Z,23.38
2022-12-17T00:41:17.960Z,23.38
2022-12-17T00:41:27.963Z,23.38
2022-12-17T00:41:37.974Z,23.38
2022-12-17T00:41:47.985Z,23.38
2022-12-17T00:41:58.008Z,23.37
2022-12-17T00:42:08.010Z,23.37
2022-12-17T00:42:18.033Z,23.37
2022-12-17T00:42:28.035Z,23.37
2022-12-17T00:42:38.037Z,23.37
2022-12-17T00:42:48.072Z,23.37
2022-12-17T00:42:58.050Z,23.36
2022-12-17T00:43:08.170Z,23.37
2022-12-17T00:43:18.172Z,23.37
2022-12-17T00:43:28.182Z,23.38
2022-12-17T00:43:38.640Z,23.37
2022-12-17T00:43:48.241Z,23.37
2022-12-17T00:43:58.543Z,23.37
2022-12-17T00:44:08.536Z,23.36
2022-12-17T00:44:18.538Z,23.37
2022-12-17T00:44:28.914Z,23.37
2022-12-17T00:44:38.915Z,23.38
2022-12-17T00:44:48.931Z,23.38
2022-12-17T00:44:58.931Z,23.38
2022-12-17T00:45:08.938Z,23.38
2022-12-17T00:45:19.048Z,23.37
2022-12-17T00:45:29.168Z,23.38
2022-12-17T00:45:39.187Z,23.38
2022-12-17T00:45:49.308Z,23.38
2022-12-17T00:45:59.311Z,23.38
2022-12-17T00:46:09.311Z,23.38
2022-12-17T00:46:19.473Z,23.37
2022-12-17T00:46:29.634Z,23.38
2022-12-17T00:46:39.635Z,23.37
2022-12-17T00:46:49.767Z,23.38
2022-12-17T00:46:59.748Z,23.38
2022-12-17T00:47:09.905Z,23.38
2022-12-17T00:47:19.840Z,23.37
2022-12-17T00:47:29.854Z,23.38
2022-12-17T00:47:39.854Z,23.38
2022-12-17T00:47:50.105Z,23.38
2022-12-17T00:48:00.114Z,23.38
2022-12-17T00:48:10.144Z,23.38
2022-12-17T00:48:20.148Z,23.38
2022-12-17T00:48:30.151Z,23.38
2022-12-17T00:48:40.153Z,23.38
2022-12-17T00:48:50.170Z,23.38
2022-12-17T00:49:00.173Z,23.38
2022-12-17T00:49:10.191Z,23.38
2022-12-17T00:49:20.190Z,23.38
2022-12-17T00:49:30.208Z,23.38
2022-12-17T00:49:40.221Z,23.37
2022-12-17T00:49:50.224Z,23.38
2022-12-17T00:50:00.243Z,23.38
2022-12-17T00:50:10.264Z,23.38
2022-12-17T00:50:20.279Z,23.38
2022-12-17T00:50:30.283Z,23.39
2022-12-17T00:50:40.285Z,23.39
2022-12-17T00:50:50.296Z,23.39
2022-12-17T00:51:00.303Z,23.39
2022-12-17T00:51:10.310Z,23.38
2022-12-17T00:51:20.317Z,23.38
2022-12-17T00:51:30.328Z,23.38
2022-12-17T00:51:40.324Z,23.39
2022-12-17T00:51:50.703Z,23.38
2022-12-17T00:52:00.702Z,23.38
2022-12-17T00:52:10.829Z,23.38
2022-12-17T00:52:21.086Z,23.38
2022-12-17T00:52:31.089Z,23.38
2022-12-17T00:52:41.095Z,23.38
2022-12-17T00:52:51.127Z,23.38
2022-12-17T00:53:01.126Z,23.38
2022-12-17T00:53:11.130Z,23.37
2022-12-17T00:53:21.135Z,23.37
2022-12-17T00:53:31.139Z,23.38
2022-12-17T00:53:41.152Z,23.38
2022-12-17T00:53:51.173Z,23.38
2022-12-17T00:54:01.177Z,23.38
2022-12-17T00:54:11.184Z,23.38
2022-12-17T00:54:21.183Z,23.39
2022-12-17T00:54:31.307Z,23.38
2022-12-17T00:54:41.310Z,23.38
2022-12-17T00:54:51.334Z,23.38
2022-12-17T00:55:01.434Z,23.38
2022-12-17T00:55:11.543Z,23.37
2022-12-17T00:55:21.557Z,23.37
2022-12-17T00:55:31.565Z,23.37
2022-12-17T00:55:41.575Z,23.37
2022-12-17T00:55:51.581Z,23.36
2022-12-17T00:56:01.595Z,23.36
2022-12-17T00:56:11.599Z,23.35
2022-12-17T00:56:21.605Z,23.36
2022-12-17T00:56:31.625Z,23.36
2022-12-17T00:56:41.635Z,23.36
2022-12-17T00:56:51.642Z,23.36
2022-12-17T00:57:01.738Z,23.35
2022-12-17T00:57:11.861Z,23.35
2022-12-17T00:57:21.862Z,23.35
2022-12-17T00:57:31.871Z,23.35
2022-12-17T00:57:41.885Z,23.36
2022-12-17T00:57:51.927Z,23.35
2022-12-17T00:58:01.946Z,23.35
2022-12-17T00:58:11.951Z,23.36
2022-12-17T00:58:21.962Z,23.35
2022-12-17T00:58:31.969Z,23.35
2022-12-17T00:58:41.979Z,23.35
2022-12-17T00:58:51.995Z,23.36
2022-12-17T00:59:02.012Z,23.36
2022-12-17T00:59:12.008Z,23.36
2022-12-17T00:59:22.045Z,23.36
2022-12-17T00:59:32.040Z,23.36
2022-12-17T00:59:42.162Z,23.36
2022-12-17T00:59:52.170Z,23.36
2022-12-17T01:00:02.175Z,23.35
2022-12-17T01:00:12.173Z,23.36
2022-12-17T01:00:22.438Z,23.37
2022-12-17T01:00:32.521Z,23.36
2022-12-17T01:00:42.521Z,23.36
2022-12-17T01:00:52.580Z,23.36
2022-12-17T01:01:02.564Z,23.30
2022-12-17T01:01:12.764Z,23.33
2022-12-17T01:01:22.827Z,23.33
2022-12-17T01:01:32.968Z,23.33
2022-12-17T01:01:43.072Z,23.33
2022-12-17T01:01:53.123Z,23.34
2022-12-17T01:02:03.181Z,23.32
2022-12-17T01:02:13.385Z,23.33
2022-12-17T01:02:23.463Z,23.32
2022-12-17T01:02:33.349Z,23.30
2022-12-17T01:02:43.939Z,23.27
2022-12-17T01:02:53.936Z,23.18
2022-12-17T01:03:03.915Z,23.12
2022-12-17T01:03:14.118Z,23.06
2022-12-17T01:03:24.173Z,23.02
2022-12-17T01:03:34.563Z,22.98
2022-12-17T01:03:44.482Z,22.94
2022-12-17T01:03:54.485Z,22.91
2022-12-17T01:04:04.619Z,22.88
2022-12-17T01:04:14.977Z,22.88
2022-12-17T01:04:24.960Z,22.87
2022-12-17T01:04:34.963Z,22.86
2022-12-17T01:04:45.338Z,22.87
2022-12-17T01:04:55.348Z,22.85
2022-12-17T01:05:05.419Z,22.84
2022-12-17T01:05:15.422Z,22.84
2022-12-17T01:05:25.545Z,22.84
2022-12-17T01:05:35.549Z,22.83
2022-12-17T01:05:45.552Z,22.83
2022-12-17T01:05:55.564Z,22.83
2022-12-17T01:06:05.678Z,22.84
2022-12-17T01:06:15.699Z,22.83
2022-12-17T01:06:25.833Z,22.84
2022-12-17T01:06:35.849Z,22.84
2022-12-17T01:06:45.852Z,22.84
2022-12-17T01:06:55.862Z,22.84
2022-12-17T01:07:06.174Z,22.82
2022-12-17T01:07:16.186Z,22.83
2022-12-17T01:07:26.195Z,22.83
2022-12-17T01:07:36.200Z,22.83
2022-12-17T01:07:46.234Z,22.84
2022-12-17T01:07:56.321Z,22.83
2022-12-17T01:08:06.248Z,22.83
2022-12-17T01:08:16.287Z,22.83
2022-12-17T01:08:26.293Z,22.83
2022-12-17T01:08:36.316Z,22.83
2022-12-17T01:08:46.310Z,22.82
2022-12-17T01:08:56.444Z,22.82
2022-12-17T01:09:06.349Z,22.82
2022-12-17T01:09:16.370Z,22.82
2022-12-17T01:09:26.385Z,22.81
2022-12-17T01:09:36.389Z,22.80
2022-12-17T01:09:46.392Z,22.80
2022-12-17T01:09:56.406Z,22.80
2022-12-17T01:10:06.435Z,22.80
2022-12-17T01:10:16.435Z,22.80
2022-12-17T01:10:26.570Z,22.80
2022-12-17T01:10:36.580Z,22.79
2022-12-17T01:10:46.588Z,22.79
2022-12-17T01:10:56.597Z,22.79
2022-12-17T01:11:06.849Z,22.78
2022-12-17T01:11:16.855Z,22.79
2022-12-17T01:11:26.977Z,22.78
2022-12-17T01:11:37.237Z,22.78
2022-12-17T01:11:47.359Z,22.78
2022-12-17T01:11:57.360Z,22.78
2022-12-17T01:12:07.629Z,22.77
2022-12-17T01:12:17.640Z,22.77
2022-12-17T01:12:27.657Z,22.77
2022-12-17T01:12:37.655Z,22.77
2022-12-17T01:12:47.787Z,22.77
2022-12-17T01:12:57.814Z,22.76
2022-12-17T01:13:07.798Z,22.76
2022-12-17T01:13:17.804Z,22.76
2022-12-17T01:13:27.815Z,22.75
2022-12-17T01:13:38.270Z,22.76
2022-12-17T01:13:47.865Z,22.75
2022-12-17T01:13:57.874Z,22.74
2022-12-17T01:14:07.994Z,22.75
2022-12-17T01:14:18.020Z,22.75
2022-12-17T01:14:28.025Z,22.74
2022-12-17T01:14:38.026Z,22.74
2022-12-17T01:14:48.145Z,22.74
2022-12-17T01:14:58.279Z,22.74
2022-12-17T01:15:08.288Z,22.74
2022-12-17T01:15:18.295Z,22.74
2022-12-17T01:15:28.666Z,22.73
2022-12-17T01:15:38.682Z,22.75
2022-12-17T01:15:48.681Z,22.74
2022-12-17T01:15:58.720Z,22.74
2022-12-17T01:16:08.814Z,22.74
2022-12-17T01:16:18.903Z,22.74
2022-12-17T01:16:28.985Z,22.74
2022-12-17T01:16:39.079Z,22.74
2022-12-17T01:16:49.156Z,22.75
2022-12-17T01:16:59.173Z,22.75
2022-12-17T01:17:09.306Z,22.76
2022-12-17T01:17:19.295Z,22.76
2022-12-17T01:17:29.414Z,22.76
2022-12-17T01:17:39.673Z,22.78
2022-12-17T01:17:49.801Z,22.79
2022-12-17T01:17:59.812Z,22.79
2022-12-17T01:18:10.064Z,22.80
2022-12-17T01:18:20.066Z,22.81
2022-12-17T01:18:30.201Z,22.82
2022-12-17T01:18:40.479Z,22.83
2022-12-17T01:18:50.608Z,22.82
2022-12-17T01:19:00.616Z,22.83
2022-12-17T01:19:10.881Z,22.83
2022-12-17T01:19:20.891Z,22.83
2022-12-17T01:19:30.884Z,22.84
2022-12-17T01:19:40.886Z,22.83
2022-12-17T01:19:50.902Z,22.84
2022-12-17T01:20:00.905Z,22.83
2022-12-17T01:20:10.904Z,22.83
2022-12-17T01:20:20.919Z,22.84
2022-12-17T01:20:30.938Z,22.85
2022-12-17T01:20:40.935Z,22.85
2022-12-17T01:20:50.947Z,22.85
2022-12-17T01:21:00.956Z,22.85
2022-12-17T01:21:10.978Z,22.84
2022-12-17T01:21:20.978Z,22.85
2022-12-17T01:21:30.993Z,22.86
2022-12-17T01:21:40.995Z,22.86
2022-12-17T01:21:51.011Z,22.85
2022-12-17T01:22:01.056Z,22.85
2022-12-17T01:22:11.056Z,22.85
2022-12-17T01:22:21.067Z,22.86
2022-12-17T01:22:31.075Z,22.88
2022-12-17T01:22:41.086Z,22.88
2022-12-17T01:22:51.218Z,22.88
2022-12-17T01:23:01.224Z,22.88
2022-12-17T01:23:11.500Z,22.88
2022-12-17T01:23:21.503Z,22.89
2022-12-17T01:23:31.505Z,22.89
2022-12-17T01:23:41.517Z,22.89
2022-12-17T01:23:51.545Z,22.89
2022-12-17T01:24:01.542Z,22.91
2022-12-17T01:24:11.545Z,22.90
2022-12-17T01:24:21.551Z,22.90
2022-12-17T01:24:31.552Z,22.90
2022-12-17T01:24:41.565Z,22.91
2022-12-17T01:24:51.957Z,22.89
2022-12-17T01:25:01.955Z,22.90
2022-12-17T01:25:11.959Z,22.90
2022-12-17T01:25:21.976Z,22.91
2022-12-17T01:25:31.995Z,22.91
2022-12-17T01:25:42.003Z,22.90
2022-12-17T01:25:52.041Z,22.91
2022-12-17T01:26:02.040Z,22.91
2022-12-17T01:26:12.160Z,22.91
2022-12-17T01:26:22.173Z,22.91
2022-12-17T01:26:32.436Z,22.91
2022-12-17T01:26:42.445Z,22.92
2022-12-17T01:26:52.438Z,22.92
2022-12-17T01:27:02.440Z,22.92
2022-12-17T01:27:12.453Z,22.92
2022-12-17T01:27:22.460Z,22.91
2022-12-17T01:27:32.453Z,22.92
2022-12-17T01:27:42.461Z,22.92
2022-12-17T01:27:52.588Z,22.92
2022-12-17T01:28:02.628Z,22.92
2022-12-17T01:28:12.868Z,22.92
2022-12-17T01:28:22.862Z,22.92
2022-12-17T01:28:32.877Z,22.92
2022-12-17T01:28:42.876Z,22.92
2022-12-17T01:28:53.002Z,22.92
2022-12-17T01:29:02.999Z,22.91
2022-12-17T01:29:13.118Z,22.91
2022-12-17T01:29:23.127Z,22.91
2022-12-17T01:29:33.249Z,22.91
2022-12-17T01:29:43.255Z,22.90
2022-12-17T01:29:53.268Z,22.90
2022-12-17T01:30:03.283Z,22.91
2022-12-17T01:30:13.291Z,22.91
2022-12-17T01:30:23.301Z,22.91
2022-12-17T01:30:33.317Z,22.90
2022-12-17T01:30:43.323Z,22.91
2022-12-17T01:30:53.329Z,22.91
2022-12-17T01:31:03.360Z,22.90
2022-12-17T01:31:13.397Z,22.90
2022-12-17T01:31:23.498Z,22.90
2022-12-17T01:31:35.451Z,22.90
2022-12-17T01:31:43.638Z,22.87
2022-12-17T01:31:53.731Z,22.88
2022-12-17T01:32:03.923Z,22.89
2022-12-17T01:32:13.888Z,22.90
2022-12-17T01:32:23.873Z,22.89
2022-12-17T01:32:33.998Z,22.90
2022-12-17T01:32:43.999Z,22.89
2022-12-17T01:32:54.125Z,22.90
2022-12-17T01:33:04.399Z,22.89
2022-12-17T01:33:14.403Z,22.89
2022-12-17T01:33:24.413Z,22.89
2022-12-17T01:33:34.808Z,22.88
2022-12-17T01:33:44.703Z,22.87
2022-12-17T01:33:54.710Z,22.87
2022-12-17T01:34:04.717Z,22.88
2022-12-17T01:34:14.759Z,22.88
2022-12-17T01:34:24.746Z,22.88
2022-12-17T01:34:34.743Z,22.87
2022-12-17T01:34:44.767Z,22.88
2022-12-17T01:34:54.783Z,22.87
2022-12-17T01:35:04.780Z,22.87
2022-12-17T01:35:14.791Z,22.87
2022-12-17T01:35:24.812Z,22.88
2022-12-17T01:35:34.840Z,22.88
2022-12-17T01:35:44.860Z,22.87
2022-12-17T01:35:54.863Z,22.87
2022-12-17T01:36:04.869Z,22.86
2022-12-17T01:36:15.121Z,22.86
2022-12-17T01:36:25.119Z,22.86
2022-12-17T01:36:35.242Z,22.87
2022-12-17T01:36:45.510Z,22.86
2022-12-17T01:36:55.521Z,22.86
2022-12-17T01:37:05.554Z,22.86
2022-12-17T01:37:15.551Z,22.86
2022-12-17T01:37:25.557Z,22.86
2022-12-17T01:37:35.679Z,22.86
2022-12-17T01:37:45.695Z,22.86
2022-12-17T01:37:55.714Z,22.86
2022-12-17T01:38:05.705Z,22.86
2022-12-17T01:38:15.823Z,22.86
2022-12-17T01:38:25.959Z,22.86
2022-12-17T01:38:36.089Z,22.86
2022-12-17T01:38:46.111Z,22.85
2022-12-17T01:38:56.362Z,22.86
2022-12-17T01:39:06.375Z,22.85
2022-12-17T01:39:16.376Z,22.85
2022-12-17T01:39:26.379Z,22.85
2022-12-17T01:39:36.506Z,22.85
2022-12-17T01:39:46.511Z,22.85
2022-12-17T01:39:56.507Z,22.84
2022-12-17T01:40:06.515Z,22.84
2022-12-17T01:40:16.635Z,22.84
2022-12-17T01:40:26.637Z,22.84
2022-12-17T01:40:36.778Z,22.84
2022-12-17T01:40:46.774Z,22.84
2022-12-17T01:40:56.894Z,22.84
2022-12-17T01:41:07.173Z,22.84
2022-12-17T01:41:17.179Z,22.84
2022-12-17T01:41:27.302Z,22.82
2022-12-17T01:41:37.562Z,22.82
2022-12-17T01:41:47.582Z,22.82
2022-12-17T01:41:57.601Z,22.82
2022-12-17T01:42:07.602Z,22.82
2022-12-17T01:42:17.602Z,22.82
2022-12-17T01:42:27.620Z,22.82
2022-12-17T01:42:37.626Z,22.82
2022-12-17T01:42:47.633Z,22.81
2022-12-17T01:42:57.644Z,22.81
2022-12-17T01:43:07.669Z,22.81
2022-12-17T01:43:17.666Z,22.81
2022-12-17T01:43:27.672Z,22.81
2022-12-17T01:43:38.211Z,22.80
2022-12-17T01:43:47.798Z,22.80
2022-12-17T01:43:57.807Z,22.80
2022-12-17T01:44:07.807Z,22.80
2022-12-17T01:44:17.819Z,22.80
2022-12-17T01:44:28.089Z,22.79
2022-12-17T01:44:38.090Z,22.79
2022-12-17T01:44:48.217Z,22.79
2022-12-17T01:44:58.479Z,22.79
2022-12-17T01:45:08.606Z,22.79
2022-12-17T01:45:18.619Z,22.79
2022-12-17T01:45:28.909Z,22.79
2022-12-17T01:45:38.979Z,22.79
2022-12-17T01:45:49.020Z,22.79
2022-12-17T01:45:59.083Z,22.78
2022-12-17T01:46:09.231Z,22.79
2022-12-17T01:46:19.196Z,22.78
2022-12-17T01:46:29.211Z,22.78
2022-12-17T01:46:39.249Z,22.77
2022-12-17T01:46:49.244Z,22.77
2022-12-17T01:46:59.263Z,22.78
2022-12-17T01:47:09.248Z,22.78
2022-12-17T01:47:19.254Z,22.77
2022-12-17T01:47:29.263Z,22.78
2022-12-17T01:47:39.264Z,22.77
2022-12-17T01:47:49.274Z,22.77
2022-12-17T01:47:59.286Z,22.77
2022-12-17T01:48:09.308Z,22.77
2022-12-17T01:48:19.307Z,22.77
2022-12-17T01:48:29.432Z,22.76
2022-12-17T01:48:39.434Z,22.76
2022-12-17T01:48:49.564Z,22.75
2022-12-17T01:48:59.570Z,22.76
2022-12-17T01:49:09.569Z,22.75
2022-12-17T01:49:19.671Z,22.75
2022-12-17T01:49:29.675Z,22.75
2022-12-17T01:49:39.673Z,22.75
2022-12-17T01:49:49.683Z,22.75
2022-12-17T01:49:59.699Z,22.74
2022-12-17T01:50:09.703Z,22.74
2022-12-17T01:50:19.712Z,22.74
2022-12-17T01:50:29.712Z,22.74
2022-12-17T01:50:39.716Z,22.74
2022-12-17T01:50:49.717Z,22.73
2022-12-17T01:50:59.717Z,22.74
2022-12-17T01:51:09.732Z,22.74
2022-12-17T01:51:19.738Z,22.73
2022-12-17T01:51:29.760Z,22.73
2022-12-17T01:51:39.772Z,22.73
2022-12-17T01:51:49.773Z,22.72
2022-12-17T01:51:59.773Z,22.72
2022-12-17T01:52:09.894Z,22.72
2022-12-17T01:52:20.152Z,22.71
2022-12-17T01:52:30.158Z,22.71
2022-12-17T01:52:40.159Z,22.71
2022-12-17T01:52:50.163Z,22.71
2022-12-17T01:53:00.190Z,22.71
2022-12-17T01:53:10.310Z,22.71
2022-12-17T01:53:20.314Z,22.71
2022-12-17T01:53:30.447Z,22.71
2022-12-17T01:53:40.447Z,22.70
2022-12-17T01:53:50.453Z,22.70
2022-12-17T01:54:00.583Z,22.70
2022-12-17T01:54:10.704Z,22.71
2022-12-17T01:54:20.719Z,22.71
2022-12-17T01:54:30.980Z,22.71
2022-12-17T01:54:40.985Z,22.71
2022-12-17T01:54:51.109Z,22.71
2022-12-17T01:55:01.364Z,22.71
2022-12-17T01:55:11.369Z,22.70
2022-12-17T01:55:21.368Z,22.70
2022-12-17T01:55:31.390Z,22.70
2022-12-17T01:55:41.401Z,22.70
2022-12-17T01:55:51.403Z,22.69
2022-12-17T01:56:01.413Z,22.69
2022-12-17T01:56:11.434Z,22.69
2022-12-17T01:56:21.436Z,22.68
2022-12-17T01:56:31.486Z,22.68
2022-12-17T01:56:41.496Z,22.67
2022-12-17T01:56:51.501Z,22.68
2022-12-17T01:57:01.508Z,22.68
2022-12-17T01:57:11.636Z,22.68
2022-12-17T01:57:21.641Z,22.67
2022-12-17T01:57:31.760Z,22.68
2022-12-17T01:57:41.758Z,22.67
2022-12-17T01:57:51.884Z,22.67
2022-12-17T01:58:01.886Z,22.67
2022-12-17T01:58:11.938Z,22.67
2022-12-17T01:58:21.908Z,22.67
2022-12-17T01:58:31.920Z,22.66
2022-12-17T01:58:41.923Z,22.66
2022-12-17T01:58:51.925Z,22.65
2022-12-17T01:59:01.933Z,22.66
2022-12-17T01:59:12.063Z,22.66
2022-12-17T01:59:22.065Z,22.66
2022-12-17T01:59:32.327Z,22.66
2022-12-17T01:59:42.325Z,22.66
2022-12-17T01:59:52.446Z,22.66
2022-12-17T02:00:02.711Z,22.66
2022-12-17T02:00:12.829Z,22.65
2022-12-17T02:00:22.838Z,22.64
2022-12-17T02:00:33.195Z,22.65
2022-12-17T02:00:43.253Z,22.64
2022-12-17T02:00:53.302Z,22.65
2022-12-17T02:01:03.666Z,22.64
2022-12-17T02:01:13.749Z,22.65
2022-12-17T02:01:23.755Z,22.64
2022-12-17T02:01:33.840Z,22.65
2022-12-17T02:01:44.106Z,22.64
2022-12-17T02:01:54.189Z,22.64
2022-12-17T02:02:04.103Z,22.63
2022-12-17T02:02:14.249Z,22.63
2022-12-17T02:02:24.359Z,22.64
2022-12-17T02:02:34.442Z,22.63
2022-12-17T02:02:44.619Z,22.62
2022-12-17T02:02:54.691Z,22.62
2022-12-17T02:03:04.669Z,22.62
2022-12-17T02:03:14.785Z,22.63
2022-12-17T02:03:24.787Z,22.62
2022-12-17T02:03:35.272Z,22.62
2022-12-17T02:03:44.924Z,22.61
2022-12-17T02:03:54.936Z,22.61
2022-12-17T02:04:04.941Z,22.61
2022-12-17T02:04:15.069Z,22.61
2022-12-17T02:04:25.195Z,22.61
2022-12-17T02:04:35.197Z,22.61
2022-12-17T02:04:45.214Z,22.61
2022-12-17T02:04:55.590Z,22.61
2022-12-17T02:05:05.594Z,22.61
2022-12-17T02:05:15.600Z,22.61
2022-12-17T02:05:25.618Z,22.61
2022-12-17T02:05:35.628Z,22.60
2022-12-17T02:05:45.640Z,22.60
2022-12-17T02:05:55.746Z,22.60
2022-12-17T02:06:05.757Z,22.60
2022-12-17T02:06:15.874Z,22.60
2022-12-17T02:06:25.875Z,22.60
2022-12-17T02:06:36.008Z,22.60
2022-12-17T02:06:46.109Z,22.60
2022-12-17T02:06:56.111Z,22.60
2022-12-17T02:07:06.181Z,22.59
2022-12-17T02:07:16.235Z,22.59
2022-12-17T02:07:26.322Z,22.59
2022-12-17T02:07:36.434Z,22.59
2022-12-17T02:07:46.465Z,22.59
2022-12-17T02:07:56.356Z,22.58
2022-12-17T02:08:06.364Z,22.59
2022-12-17T02:08:16.374Z,22.59
2022-12-17T02:08:26.383Z,22.58
2022-12-17T02:08:36.408Z,22.58
2022-12-17T02:08:46.403Z,22.58
2022-12-17T02:08:56.414Z,22.58
2022-12-17T02:09:06.424Z,22.58
2022-12-17T02:09:16.422Z,22.57
2022-12-17T02:09:26.424Z,22.57